createdAt,value
2023-04-03T05:42:22.102Z,100108.91
2023-04-03T05:45:07.850Z,100108.91
2023-04-03T05:47:53.589Z,100123.00
2023-04-03T05:50:42.585Z,100123.03
2023-04-03T05:53:30.162Z,100124.78
2023-04-03T05:56:16.060Z,100124.06
2023-04-03T05:59:02.396Z,100117.88
2023-04-03T06:01:48.391Z,100109.50
2023-04-03T06:04:34.230Z,100108.53
2023-04-03T06:07:23.868Z,100116.03
2023-04-03T06:10:12.074Z,100105.16
2023-04-03T06:12:58.067Z,100112.50
2023-04-03T06:15:43.322Z,100111.94
2023-04-03T06:18:34.269Z,100116.22
2023-04-03T06:21:20.823Z,100095.88
2023-04-03T06:24:06.910Z,100113.78
2023-04-03T06:26:55.059Z,100115.66
2023-04-03T06:29:41.007Z,100122.37
2023-04-03T06:32:27.567Z,100109.13
2023-04-03T06:35:13.375Z,100104.59
2023-04-03T06:37:58.994Z,100116.34
2023-04-03T06:40:44.977Z,100080.13
2023-04-03T06:43:34.337Z,100104.03
2023-04-03T06:46:22.777Z,100118.87
2023-04-03T06:49:09.056Z,100096.19
2023-04-03T06:51:54.743Z,100110.44
2023-04-03T06:54:42.120Z,100124.84
2023-04-03T06:57:27.617Z,100108.84
2023-04-03T07:00:14.359Z,100118.91
2023-04-03T07:03:01.090Z,100115.97
2023-04-03T07:05:46.857Z,100107.97
2023-04-03T07:08:34.730Z,100108.69
2023-04-03T07:11:23.489Z,100126.06
2023-04-03T07:14:09.069Z,100102.50
2023-04-03T07:16:54.767Z,100107.84
2023-04-03T07:19:40.429Z,100124.41
2023-04-03T07:22:28.942Z,100102.59
2023-04-03T07:25:15.201Z,100118.91
2023-04-03T07:28:00.864Z,100108.00
2023-04-03T07:30:55.133Z,100126.22
2023-04-03T07:33:41.866Z,100121.03
2023-04-03T07:36:27.264Z,100120.75
2023-04-03T07:39:12.613Z,100105.97
2023-04-03T07:42:00.321Z,100148.31
2023-04-03T07:44:46.817Z,100150.31
2023-04-03T07:47:32.629Z,100127.47
2023-04-03T07:50:25.364Z,100140.34
2023-04-03T07:53:11.346Z,100156.00
2023-04-03T07:55:59.600Z,100148.66
2023-04-03T07:58:46.493Z,100134.28
2023-04-03T08:01:33.776Z,100166.31
2023-04-03T08:04:20.872Z,100168.66
2023-04-03T08:07:06.708Z,100178.59
2023-04-03T08:09:52.361Z,100151.69
2023-04-03T08:12:39.088Z,100180.38
2023-04-03T08:15:25.755Z,100176.53
2023-04-03T08:18:12.253Z,100172.28
2023-04-03T08:20:58.448Z,100187.66
2023-04-03T08:23:44.750Z,100171.09
2023-04-03T08:26:32.638Z,100195.63
2023-04-03T08:29:19.130Z,100195.81
2023-04-03T08:32:06.002Z,100213.37
2023-04-03T08:34:51.838Z,100196.50
2023-04-03T08:37:49.566Z,100196.09
2023-04-03T08:40:35.260Z,100210.66
2023-04-03T08:43:38.644Z,100212.12
2023-04-03T08:46:28.058Z,100203.91
2023-04-03T08:49:24.847Z,100214.03
2023-04-03T08:52:19.783Z,100219.94
2023-04-03T08:55:14.222Z,100215.06
2023-04-03T08:58:06.656Z,100210.34
2023-04-03T09:00:57.122Z,100219.16
2023-04-03T09:03:42.672Z,100212.38
2023-04-03T09:06:33.757Z,100216.34
2023-04-03T09:09:42.340Z,100200.50
2023-04-03T09:13:09.841Z,100223.06
2023-04-03T09:15:56.358Z,100218.50
2023-04-03T09:18:47.376Z,100211.44
2023-04-03T09:21:36.615Z,100218.72
2023-04-03T09:24:25.204Z,100215.34
2023-04-03T09:27:12.320Z,100217.34
2023-04-03T09:29:58.545Z,100222.09
2023-04-03T09:32:50.258Z,100209.59
2023-04-03T09:35:47.474Z,100205.81
2023-04-03T09:38:35.066Z,100213.34
2023-04-03T09:41:23.462Z,100204.50
2023-04-03T09:44:27.178Z,100197.78
2023-04-03T09:47:40.422Z,100194.19
2023-04-03T09:50:27.813Z,100189.66
2023-04-03T09:53:27.952Z,100202.63
2023-04-03T09:56:23.442Z,100196.31
2023-04-03T09:59:16.143Z,100189.59
2023-04-03T10:02:05.538Z,100177.78
2023-04-03T10:05:02.518Z,100180.47
2023-04-03T10:11:18.079Z,100196.81
2023-04-03T10:14:06.872Z,100183.88
2023-04-03T10:17:06.261Z,100182.16
2023-04-03T10:20:24.160Z,100195.97
2023-04-03T10:23:21.668Z,100186.88
2023-04-03T10:26:29.786Z,100179.94
2023-04-03T10:29:37.544Z,100172.22
2023-04-03T10:32:51.402Z,100182.28
2023-04-03T10:36:10.432Z,100180.38
2023-04-03T10:39:11.001Z,100188.00
2023-04-03T10:42:15.926Z,100171.84
2023-04-03T10:45:32.126Z,100189.13
2023-04-03T10:48:25.436Z,100166.06
2023-04-03T10:51:33.288Z,100171.34
2023-04-03T10:54:47.096Z,100164.06
2023-04-03T10:57:32.714Z,100145.63
2023-04-03T11:00:23.494Z,100141.81
2023-04-03T11:03:24.107Z,100162.13
2023-04-03T11:06:12.509Z,100153.06
2023-04-03T11:09:04.783Z,100158.97
2023-04-03T11:11:54.618Z,100166.53
2023-04-03T11:14:40.313Z,100163.50
2023-04-03T11:17:28.914Z,100158.78
2023-04-03T11:20:20.507Z,100150.56
2023-04-03T11:23:15.244Z,100147.28
2023-04-03T11:26:10.561Z,100153.84
2023-04-03T11:29:04.992Z,100140.56
2023-04-03T11:32:12.342Z,100154.22
2023-04-03T11:35:00.583Z,100149.28
2023-04-03T11:37:49.128Z,100147.81
2023-04-03T11:40:36.197Z,100147.59
2023-04-03T11:43:27.356Z,100129.03
2023-04-03T11:46:12.360Z,100138.53
2023-04-03T11:48:58.031Z,100146.19
2023-04-03T11:51:44.442Z,100131.31
2023-04-03T11:54:46.399Z,100115.25
2023-04-03T11:58:06.104Z,100116.19
2023-04-03T12:00:53.328Z,100117.03
2023-04-03T12:03:43.319Z,100114.16
2023-04-03T12:06:29.201Z,100128.87
2023-04-03T12:09:24.581Z,100127.56
2023-04-03T12:12:30.480Z,100122.28
2023-04-03T12:15:42.782Z,100116.53
